createdAt,value
2023-04-08T00:00:08.830Z,100.00
2023-04-08T00:02:35.424Z,100.00
2023-04-08T00:05:02.142Z,100.00
2023-04-08T00:07:29.077Z,100.00
2023-04-08T00:09:55.604Z,100.00
2023-04-08T00:12:22.152Z,100.00
2023-04-08T00:14:48.676Z,100.00
2023-04-08T00:17:15.096Z,100.00
2023-04-08T00:19:41.513Z,100.00
2023-04-08T00:22:08.311Z,100.00
2023-04-08T00:24:34.787Z,100.00
2023-04-08T00:27:01.210Z,100.00
2023-04-08T00:29:27.623Z,100.00
2023-04-08T00:31:54.530Z,100.00
2023-04-08T00:34:21.102Z,100.00
2023-04-08T00:36:47.647Z,100.00
2023-04-08T00:39:14.606Z,100.00
2023-04-08T00:41:41.152Z,100.00
2023-04-08T00:44:07.803Z,100.00
2023-04-08T00:46:37.253Z,100.00
2023-04-08T00:49:04.398Z,100.00
2023-04-08T00:51:36.348Z,100.00
2023-04-08T00:54:04.912Z,100.00
2023-04-08T00:56:32.848Z,100.00
2023-04-08T00:59:00.661Z,100.00
2023-04-08T01:01:43.863Z,100.00
2023-04-08T01:04:27.490Z,100.00
2023-04-08T01:07:17.920Z,100.00
2023-04-08T01:09:56.343Z,100.00
2023-04-08T01:12:29.949Z,100.00
2023-04-08T01:15:05.891Z,100.00
2023-04-08T01:17:33.936Z,100.00
2023-04-08T01:20:02.760Z,100.00
2023-04-08T01:22:48.470Z,100.00
2023-04-08T01:25:29.960Z,100.00
2023-04-08T01:27:58.424Z,100.00
2023-04-08T01:30:26.079Z,100.00
2023-04-08T01:32:56.476Z,100.00
2023-04-08T01:35:23.968Z,100.00
2023-04-08T01:37:51.634Z,100.00
2023-04-08T01:40:19.849Z,100.00
2023-04-08T01:42:49.629Z,100.00
2023-04-08T01:45:16.884Z,100.00
2023-04-08T01:47:47.523Z,100.00
2023-04-08T01:50:15.616Z,100.00
2023-04-08T01:52:46.167Z,100.00
2023-04-08T01:55:12.741Z,100.00
2023-04-08T01:57:40.909Z,100.00
2023-04-08T02:00:14.336Z,100.00
2023-04-08T02:02:43.061Z,100.00
2023-04-08T02:05:09.826Z,100.00
2023-04-08T02:07:36.610Z,100.00
2023-04-08T02:10:03.750Z,100.00
2023-04-08T02:12:30.507Z,100.00
2023-04-08T02:14:57.856Z,100.00
2023-04-08T02:17:45.541Z,100.00
2023-04-08T02:20:31.072Z,100.00
2023-04-08T02:23:09.127Z,100.00
2023-04-08T02:25:38.869Z,100.00
2023-04-08T02:28:09.517Z,100.00
2023-04-08T02:30:37.266Z,100.00
2023-04-08T02:33:05.609Z,100.00
2023-04-08T02:35:32.797Z,100.00
2023-04-08T02:37:59.404Z,100.00
2023-04-08T02:40:30.277Z,100.00
2023-04-08T02:42:57.050Z,100.00
2023-04-08T02:45:27.660Z,100.00
2023-04-08T02:47:54.224Z,100.00
2023-04-08T02:50:20.740Z,100.00
2023-04-08T02:52:47.197Z,100.00
2023-04-08T02:55:13.595Z,100.00
2023-04-08T02:57:41.983Z,100.00
2023-04-08T03:00:09.688Z,100.00
2023-04-08T03:02:36.543Z,100.00
2023-04-08T03:05:04.292Z,100.00
2023-04-08T03:07:30.975Z,100.00
2023-04-08T03:09:57.546Z,100.00
2023-04-08T03:12:24.020Z,100.00
2023-04-08T03:14:50.772Z,100.00
2023-04-08T03:17:17.231Z,100.00
2023-04-08T03:19:43.657Z,100.00
2023-04-08T03:22:10.204Z,100.00
2023-04-08T03:24:37.050Z,100.00
2023-04-08T03:27:03.800Z,100.00
2023-04-08T03:29:32.999Z,100.00
2023-04-08T03:31:59.647Z,100.00
2023-04-08T03:34:26.222Z,100.00
2023-04-08T03:36:52.699Z,100.00
2023-04-08T03:39:19.432Z,100.00
2023-04-08T03:41:45.834Z,100.00
2023-04-08T03:44:12.298Z,100.00
2023-04-08T03:46:38.718Z,100.00
2023-04-08T03:49:05.302Z,100.00
2023-04-08T03:51:31.927Z,100.00
2023-04-08T03:53:58.420Z,100.00
2023-04-08T03:56:25.595Z,100.00
2023-04-08T03:58:52.259Z,100.00
2023-04-08T04:01:18.885Z,100.00
2023-04-08T04:03:45.443Z,100.00
2023-04-08T04:06:12.144Z,100.00
2023-04-08T04:08:38.536Z,100.00
2023-04-08T04:11:04.972Z,100.00
2023-04-08T04:13:31.344Z,100.00
2023-04-08T04:15:58.004Z,100.00
2023-04-08T04:18:24.407Z,100.00
2023-04-08T04:20:50.956Z,100.00
2023-04-08T04:23:17.363Z,100.00
2023-04-08T04:25:44.399Z,100.00
2023-04-08T04:28:10.890Z,100.00
2023-04-08T04:30:40.545Z,100.00
2023-04-08T04:33:07.430Z,100.00
2023-04-08T04:35:34.199Z,100.00
2023-04-08T04:38:01.591Z,100.00
2023-04-08T04:40:28.082Z,100.00
2023-04-08T04:42:54.504Z,100.00
2023-04-08T04:45:20.955Z,100.00
2023-04-08T04:47:47.477Z,100.00
2023-04-08T04:50:13.884Z,100.00
2023-04-08T04:52:41.388Z,100.00
2023-04-08T04:55:08.230Z,100.00
2023-04-08T04:57:34.670Z,100.00
2023-04-08T05:00:02.273Z,100.00
2023-04-08T05:02:30.813Z,100.00
2023-04-08T05:04:57.380Z,100.00
2023-04-08T05:07:23.943Z,100.00
2023-04-08T05:09:50.712Z,100.00
2023-04-08T05:12:17.238Z,100.00
2023-04-08T05:14:43.699Z,100.00
2023-04-08T05:17:10.134Z,100.00
2023-04-08T05:19:36.533Z,100.00
2023-04-08T05:22:03.011Z,100.00
2023-04-08T05:24:29.419Z,100.00
2023-04-08T05:26:57.797Z,100.00
2023-04-08T05:29:24.268Z,100.00
2023-04-08T05:31:51.073Z,100.00
2023-04-08T05:34:22.793Z,100.00
2023-04-08T05:36:53.449Z,100.00
2023-04-08T05:39:20.372Z,100.00
2023-04-08T05:41:46.894Z,100.00
2023-04-08T05:44:14.105Z,100.00
2023-04-08T05:46:40.574Z,100.00
2023-04-08T05:49:07.100Z,100.00
2023-04-08T05:51:33.503Z,100.00
2023-04-08T05:53:59.863Z,100.00
2023-04-08T05:56:26.500Z,100.00
2023-04-08T05:58:52.952Z,100.00
2023-04-08T06:01:19.387Z,100.00
2023-04-08T06:03:46.087Z,100.00
2023-04-08T06:06:12.678Z,100.00
2023-04-08T06:08:39.161Z,100.00
2023-04-08T06:11:05.720Z,100.00
2023-04-08T06:13:32.387Z,100.00
2023-04-08T06:15:59.614Z,100.00
2023-04-08T06:18:26.143Z,100.00
2023-04-08T06:20:52.550Z,100.00
2023-04-08T06:23:18.981Z,100.00
2023-04-08T06:25:45.412Z,100.00
2023-04-08T06:28:11.813Z,100.00
2023-04-08T06:30:38.261Z,100.00
2023-04-08T06:33:04.767Z,100.00
2023-04-08T06:35:32.627Z,100.00
2023-04-08T06:37:59.193Z,100.00
2023-04-08T06:40:25.807Z,100.00
2023-04-08T06:42:52.289Z,100.00
2023-04-08T06:45:18.661Z,100.00
2023-04-08T06:47:45.357Z,100.00
2023-04-08T06:50:11.991Z,100.00
2023-04-08T06:52:38.659Z,100.00
2023-04-08T06:55:05.668Z,100.00
2023-04-08T06:57:32.096Z,100.00
2023-04-08T07:00:00.544Z,100.00
2023-04-08T07:02:27.198Z,100.00
2023-04-08T07:04:53.689Z,100.00
2023-04-08T07:07:20.225Z,100.00
2023-04-08T07:09:46.840Z,100.00
2023-04-08T07:12:13.500Z,100.00
2023-04-08T07:14:39.967Z,100.00
2023-04-08T07:17:06.746Z,100.00
2023-04-08T07:19:33.593Z,100.00
2023-04-08T07:22:01.010Z,100.00
2023-04-08T07:24:27.516Z,100.00
2023-04-08T07:26:56.739Z,100.00
2023-04-08T07:29:23.207Z,100.00
2023-04-08T07:31:49.569Z,100.00
2023-04-08T07:34:16.606Z,100.00
2023-04-08T07:36:43.234Z,100.00
2023-04-08T07:39:09.663Z,100.00
2023-04-08T07:41:36.558Z,100.00
2023-04-08T07:44:02.997Z,100.00
2023-04-08T07:46:29.537Z,100.00
2023-04-08T07:48:55.951Z,100.00
2023-04-08T07:51:22.479Z,100.00
2023-04-08T07:53:49.003Z,100.00
2023-04-08T07:56:16.328Z,100.00
2023-04-08T07:58:43.154Z,100.00
2023-04-08T08:01:16.589Z,100.00
2023-04-08T08:03:43.068Z,100.00
2023-04-08T08:06:11.749Z,100.00
2023-04-08T08:08:38.205Z,100.00
2023-04-08T08:11:04.689Z,100.00
2023-04-08T08:13:31.303Z,100.00
2023-04-08T08:15:57.856Z,100.00
2023-04-08T08:18:24.417Z,100.00
2023-04-08T08:20:50.882Z,100.00
2023-04-08T08:23:17.278Z,100.00
2023-04-08T08:25:43.895Z,100.00
2023-04-08T08:28:10.476Z,100.00
2023-04-08T08:30:38.369Z,100.00
2023-04-08T08:33:04.790Z,100.00
2023-04-08T08:35:31.431Z,100.00
2023-04-08T08:37:57.911Z,100.00
2023-04-08T08:40:24.328Z,100.00
2023-04-08T08:42:52.404Z,99.67
2023-04-08T08:45:22.024Z,100.00
2023-04-08T08:47:50.835Z,100.00
2023-04-08T08:50:18.021Z,99.90
2023-04-08T08:52:51.521Z,99.67
2023-04-08T08:55:41.296Z,99.09
2023-04-08T08:58:08.450Z,98.70
2023-04-08T09:00:39.287Z,97.86
2023-04-08T09:03:28.893Z,96.79
2023-04-08T09:05:57.698Z,96.44
2023-04-08T09:08:31.988Z,95.65
2023-04-08T09:11:17.785Z,94.45
2023-04-08T09:13:46.286Z,94.54
2023-04-08T09:16:16.628Z,94.11
2023-04-08T09:18:44.974Z,94.11
2023-04-08T09:21:12.691Z,93.41
2023-04-08T09:23:46.477Z,93.50
2023-04-08T09:26:14.039Z,93.47
2023-04-08T09:28:42.105Z,92.39
2023-04-08T09:31:19.577Z,91.38
2023-04-08T09:33:47.451Z,92.68
2023-04-08T09:36:15.518Z,91.24
2023-04-08T09:38:42.658Z,90.36
2023-04-08T09:41:12.998Z,89.28
2023-04-08T09:43:50.681Z,89.25
2023-04-08T09:46:24.523Z,87.87
2023-04-08T09:49:01.209Z,86.64
2023-04-08T09:51:33.172Z,84.29
2023-04-08T09:54:02.660Z,84.79
2023-04-08T09:56:41.679Z,86.46
2023-04-08T09:59:14.906Z,86.64
2023-04-08T10:01:46.379Z,86.50
2023-04-08T10:04:17.331Z,87.31
2023-04-08T10:06:43.890Z,85.12
2023-04-08T10:09:10.753Z,83.87
2023-04-08T10:11:37.404Z,83.81
2023-04-08T10:14:04.072Z,82.58
2023-04-08T10:16:31.137Z,83.24
2023-04-08T10:18:58.113Z,83.55
2023-04-08T10:21:48.082Z,80.96
2023-04-08T10:24:14.525Z,80.77
2023-04-08T10:26:42.928Z,79.50
2023-04-08T10:29:32.896Z,79.05
2023-04-08T10:31:59.698Z,77.95
2023-04-08T10:34:27.586Z,77.91
2023-04-08T10:36:56.650Z,77.15
2023-04-08T10:39:23.217Z,76.96
2023-04-08T10:41:50.946Z,76.46
2023-04-08T10:44:18.173Z,76.45
2023-04-08T10:46:46.766Z,75.61
2023-04-08T10:49:14.144Z,74.01
2023-04-08T10:51:41.625Z,73.27
2023-04-08T10:54:09.795Z,71.34
2023-04-08T10:56:43.680Z,70.94
2023-04-08T10:59:11.090Z,70.97
2023-04-08T11:01:41.903Z,70.73
2023-04-08T11:04:15.958Z,70.32
2023-04-08T11:06:44.008Z,70.83
2023-04-08T11:09:10.976Z,70.00
2023-04-08T11:11:37.937Z,68.88
2023-04-08T11:14:05.660Z,68.16
2023-04-08T11:16:32.656Z,68.04
2023-04-08T11:18:59.686Z,65.28
2023-04-08T11:21:29.555Z,63.88
2023-04-08T11:23:56.402Z,63.12
2023-04-08T11:26:23.521Z,63.46
2023-04-08T11:28:51.641Z,63.48
2023-04-08T11:31:20.640Z,60.82
2023-04-08T11:33:50.252Z,61.41
2023-04-08T11:36:21.593Z,60.95
2023-04-08T11:38:48.233Z,58.81
2023-04-08T11:41:14.904Z,58.40
2023-04-08T11:43:54.704Z,54.30
2023-04-08T11:46:21.484Z,54.08
2023-04-08T11:49:08.618Z,54.40
2023-04-08T11:51:53.494Z,55.66
2023-04-08T11:54:27.704Z,54.58
2023-04-08T11:56:54.261Z,53.42
2023-04-08T11:59:20.618Z,49.58
2023-04-08T12:01:47.225Z,48.77
2023-04-08T12:04:13.846Z,49.39
2023-04-08T12:06:43.424Z,48.76
2023-04-08T12:09:10.049Z,47.62
2023-04-08T12:11:36.718Z,48.14
2023-04-08T12:14:03.174Z,45.67
2023-04-08T12:16:29.799Z,42.34
2023-04-08T12:18:56.300Z,43.26
2023-04-08T12:21:22.837Z,45.95
2023-04-08T12:23:49.539Z,45.69
2023-04-08T12:26:16.180Z,43.50
2023-04-08T12:28:42.726Z,42.73
2023-04-08T12:31:09.181Z,43.24
2023-04-08T12:33:36.699Z,43.63
2023-04-08T12:36:03.507Z,41.77
2023-04-08T12:38:29.939Z,41.24
2023-04-08T12:40:56.470Z,40.78
2023-04-08T12:43:23.811Z,40.49
2023-04-08T12:45:50.800Z,40.15
2023-04-08T12:48:17.321Z,40.71
2023-04-08T12:50:44.064Z,41.34
2023-04-08T12:53:11.111Z,44.29
2023-04-08T12:55:37.654Z,43.25
2023-04-08T12:58:05.522Z,43.43
2023-04-08T13:00:32.351Z,44.32
2023-04-08T13:02:58.976Z,45.43
2023-04-08T13:05:33.156Z,46.64
2023-04-08T13:08:09.753Z,44.58
2023-04-08T13:10:36.339Z,44.25
2023-04-08T13:13:02.772Z,44.23
2023-04-08T13:15:29.141Z,43.85
2023-04-08T13:17:56.085Z,45.56
2023-04-08T13:20:25.881Z,45.56
2023-04-08T13:22:55.599Z,46.57
2023-04-08T13:25:22.235Z,47.50
2023-04-08T13:27:48.713Z,47.65
2023-04-08T13:30:15.534Z,47.71
2023-04-08T13:32:42.187Z,47.34
2023-04-08T13:35:09.246Z,47.71
2023-04-08T13:37:36.091Z,46.27
2023-04-08T13:40:03.498Z,46.05
2023-04-08T13:42:33.122Z,44.70
2023-04-08T13:44:59.957Z,45.34
2023-04-08T13:47:27.200Z,45.70
2023-04-08T13:49:54.015Z,45.67
2023-04-08T13:52:20.545Z,44.81
2023-04-08T13:54:47.045Z,44.50
2023-04-08T13:57:13.663Z,45.44
2023-04-08T13:59:40.933Z,45.73
2023-04-08T14:02:08.621Z,46.12
2023-04-08T14:04:35.262Z,45.96
2023-04-08T14:07:01.847Z,44.40
2023-04-08T14:09:28.281Z,44.52
2023-04-08T14:11:54.691Z,45.71
2023-04-08T14:14:21.208Z,44.79
2023-04-08T14:16:48.314Z,43.27
2023-04-08T14:19:14.803Z,43.36
2023-04-08T14:21:41.388Z,42.81
2023-04-08T14:24:07.936Z,43.02
2023-04-08T14:26:36.046Z,41.74
2023-04-08T14:29:04.682Z,41.40
2023-04-08T14:31:32.423Z,40.31
2023-04-08T14:33:59.688Z,39.82
2023-04-08T14:36:39.081Z,38.77
2023-04-08T14:39:05.748Z,40.12
2023-04-08T14:41:32.261Z,39.97
2023-04-08T14:43:58.765Z,40.23
2023-04-08T14:46:28.893Z,39.26
2023-04-08T14:48:55.852Z,40.61
2023-04-08T14:51:22.272Z,38.80
2023-04-08T14:53:48.812Z,37.74
2023-04-08T14:56:15.422Z,38.49
2023-04-08T14:58:41.876Z,38.64
2023-04-08T15:01:08.322Z,38.61
2023-04-08T15:03:34.937Z,40.27
2023-04-08T15:06:01.876Z,39.97
2023-04-08T15:08:28.763Z,40.09
2023-04-08T15:10:55.578Z,39.63
2023-04-08T15:13:22.972Z,38.86
2023-04-08T15:15:49.610Z,39.33
2023-04-08T15:18:16.258Z,38.97
2023-04-08T15:20:42.757Z,38.20
2023-04-08T15:23:09.272Z,38.63
2023-04-08T15:25:35.836Z,39.18
2023-04-08T15:28:02.708Z,40.19
2023-04-08T15:30:34.972Z,40.48
2023-04-08T15:33:04.893Z,42.99
2023-04-08T15:35:32.833Z,43.63
2023-04-08T15:38:00.450Z,42.34
2023-04-08T15:40:27.103Z,43.00
2023-04-08T15:42:53.709Z,43.19
2023-04-08T15:45:20.637Z,43.31
2023-04-08T15:47:47.094Z,43.88
2023-04-08T15:50:14.872Z,43.63
2023-04-08T15:52:41.847Z,44.14
2023-04-08T15:55:08.642Z,43.09
2023-04-08T15:57:36.542Z,43.15
2023-04-08T16:00:10.722Z,42.77
2023-04-08T16:02:37.624Z,43.37
2023-04-08T16:05:04.470Z,43.88
2023-04-08T16:07:31.229Z,43.24
2023-04-08T16:09:58.994Z,43.86
2023-04-08T16:12:25.792Z,44.56
2023-04-08T16:14:52.407Z,45.04
2023-04-08T16:17:18.896Z,45.92
2023-04-08T16:19:45.322Z,47.02
2023-04-08T16:22:11.758Z,47.03
2023-04-08T16:24:38.240Z,48.07
2023-04-08T16:27:05.477Z,48.17
2023-04-08T16:29:32.593Z,48.46
2023-04-08T16:31:59.065Z,49.09
2023-04-08T16:34:25.441Z,48.98
2023-04-08T16:36:51.949Z,47.35
2023-04-08T16:39:18.368Z,47.31
2023-04-08T16:41:45.101Z,46.29
2023-04-08T16:44:11.639Z,45.66
2023-04-08T16:46:38.371Z,44.04
2023-04-08T16:49:04.859Z,43.86
2023-04-08T16:51:31.308Z,44.14
2023-04-08T16:53:59.194Z,43.94
2023-04-08T16:56:27.003Z,44.98
2023-04-08T16:58:53.431Z,45.02
2023-04-08T17:01:20.466Z,44.38
2023-04-08T17:03:48.677Z,45.09
2023-04-08T17:06:15.310Z,45.55
2023-04-08T17:08:44.792Z,45.94
2023-04-08T17:11:14.750Z,47.37
2023-04-08T17:13:42.905Z,48.79
2023-04-08T17:16:14.993Z,49.60
2023-04-08T17:18:42.252Z,50.84
2023-04-08T17:21:08.811Z,52.05
2023-04-08T17:23:35.344Z,52.95
2023-04-08T17:26:09.283Z,53.74
2023-04-08T17:28:36.357Z,54.49
2023-04-08T17:31:02.988Z,55.72
2023-04-08T17:33:29.574Z,56.52
2023-04-08T17:35:56.149Z,56.68
2023-04-08T17:38:22.753Z,59.50
2023-04-08T17:40:49.281Z,61.57
2023-04-08T17:43:15.868Z,63.63
2023-04-08T17:45:42.399Z,65.31
2023-04-08T17:48:09.842Z,66.61
2023-04-08T17:50:36.685Z,67.42
2023-04-08T17:53:03.237Z,68.41
2023-04-08T17:55:29.747Z,69.90
2023-04-08T17:57:56.254Z,70.36
2023-04-08T18:00:22.932Z,72.30
2023-04-08T18:02:50.367Z,72.48
2023-04-08T18:05:16.906Z,73.47
2023-04-08T18:07:43.431Z,74.42
2023-04-08T18:10:10.061Z,75.55
2023-04-08T18:12:37.113Z,76.03
2023-04-08T18:15:03.738Z,76.58
2023-04-08T18:17:30.361Z,77.21
2023-04-08T18:19:58.352Z,78.12
2023-04-08T18:22:24.816Z,78.45
2023-04-08T18:24:51.266Z,78.67
2023-04-08T18:27:17.712Z,79.24
2023-04-08T18:29:44.119Z,79.32
2023-04-08T18:32:10.595Z,79.48
2023-04-08T18:34:37.157Z,79.95
2023-04-08T18:37:04.066Z,79.90
2023-04-08T18:39:30.643Z,79.83
2023-04-08T18:41:57.292Z,80.10
2023-04-08T18:44:23.780Z,80.23
2023-04-08T18:46:50.266Z,80.60
2023-04-08T18:49:16.725Z,81.13
2023-04-08T18:51:58.927Z,81.31
2023-04-08T18:54:28.167Z,81.59
2023-04-08T18:56:54.657Z,81.44
2023-04-08T18:59:21.084Z,81.47
2023-04-08T19:01:48.641Z,81.78
2023-04-08T19:04:15.316Z,81.95
2023-04-08T19:06:42.646Z,82.44
2023-04-08T19:09:09.169Z,82.52
2023-04-08T19:11:35.709Z,82.44
2023-04-08T19:14:02.187Z,82.88
2023-04-08T19:16:28.649Z,82.86
2023-04-08T19:18:55.120Z,82.77
2023-04-08T19:21:22.029Z,83.12
2023-04-08T19:23:49.239Z,83.28
2023-04-08T19:26:16.246Z,83.26
2023-04-08T19:28:42.792Z,83.42
2023-04-08T19:31:20.232Z,83.52
2023-04-08T19:33:47.014Z,83.47
2023-04-08T19:36:13.570Z,83.52
2023-04-08T19:38:40.250Z,83.20
2023-04-08T19:41:06.944Z,82.59
2023-04-08T19:43:33.462Z,82.25
2023-04-08T19:45:59.943Z,81.79
2023-04-08T19:48:26.735Z,81.54
2023-04-08T19:50:53.154Z,81.74
2023-04-08T19:53:19.718Z,81.73
2023-04-08T19:55:46.247Z,81.98
2023-04-08T19:58:12.859Z,82.33
2023-04-08T20:00:40.083Z,82.20
2023-04-08T20:03:07.785Z,82.62
2023-04-08T20:05:34.633Z,82.71
2023-04-08T20:08:01.070Z,82.99
2023-04-08T20:10:27.543Z,83.54
2023-04-08T20:12:54.248Z,83.96
2023-04-08T20:15:25.211Z,84.17
2023-04-08T20:17:53.113Z,84.67
2023-04-08T20:20:19.937Z,84.97
2023-04-08T20:22:46.614Z,85.36
2023-04-08T20:25:13.315Z,85.74
2023-04-08T20:27:39.774Z,86.30
2023-04-08T20:30:07.097Z,86.97
2023-04-08T20:32:34.698Z,87.36
2023-04-08T20:35:01.479Z,87.77
2023-04-08T20:37:28.701Z,87.64
2023-04-08T20:39:55.156Z,88.45
2023-04-08T20:42:21.689Z,88.49
2023-04-08T20:44:48.096Z,89.22
2023-04-08T20:47:14.584Z,89.37
2023-04-08T20:49:42.129Z,89.53
2023-04-08T20:52:08.571Z,89.76
2023-04-08T20:54:34.998Z,90.27
2023-04-08T20:57:01.593Z,90.06
2023-04-08T20:59:28.170Z,90.34
2023-04-08T21:01:54.699Z,91.03
2023-04-08T21:04:22.379Z,91.86
2023-04-08T21:06:48.995Z,92.53
2023-04-08T21:09:15.762Z,93.27
2023-04-08T21:11:42.370Z,93.53
2023-04-08T21:14:08.802Z,93.57
2023-04-08T21:16:35.343Z,93.64
2023-04-08T21:19:01.992Z,93.68
2023-04-08T21:21:28.536Z,94.32
2023-04-08T21:23:55.018Z,94.98
2023-04-08T21:26:22.138Z,95.06
2023-04-08T21:28:49.915Z,95.73
2023-04-08T21:31:16.640Z,95.83
2023-04-08T21:33:43.067Z,95.83
2023-04-08T21:36:09.724Z,96.28
2023-04-08T21:38:36.213Z,96.33
2023-04-08T21:41:02.781Z,96.79
2023-04-08T21:43:29.363Z,97.20
2023-04-08T21:45:55.880Z,97.79
2023-04-08T21:48:23.369Z,98.24
2023-04-08T21:50:49.824Z,98.40
2023-04-08T21:53:16.691Z,98.59
2023-04-08T21:55:43.136Z,100.00
2023-04-08T21:58:12.164Z,100.00
2023-04-08T22:00:39.039Z,100.00
2023-04-08T22:03:06.924Z,100.00
2023-04-08T22:05:33.555Z,100.00
2023-04-08T22:08:01.140Z,100.00
2023-04-08T22:10:27.704Z,100.00
2023-04-08T22:12:54.164Z,100.00
2023-04-08T22:15:20.775Z,100.00
2023-04-08T22:17:47.198Z,100.00
2023-04-08T22:20:13.697Z,100.00
2023-04-08T22:22:40.106Z,100.00
2023-04-08T22:25:07.145Z,100.00
2023-04-08T22:27:33.671Z,100.00
2023-04-08T22:30:00.222Z,100.00
2023-04-08T22:32:26.712Z,100.00
2023-04-08T22:34:53.171Z,100.00
2023-04-08T22:37:19.665Z,100.00
2023-04-08T22:39:46.164Z,100.00
2023-04-08T22:42:12.615Z,100.00
2023-04-08T22:44:39.172Z,100.00
2023-04-08T22:47:05.595Z,100.00
2023-04-08T22:49:31.964Z,100.00
2023-04-08T22:51:58.362Z,100.00
2023-04-08T22:54:24.841Z,100.00
2023-04-08T22:56:51.345Z,100.00
2023-04-08T22:59:17.769Z,100.00
2023-04-08T23:01:45.120Z,100.00
2023-04-08T23:04:11.586Z,100.00
2023-04-08T23:06:38.018Z,100.00
2023-04-08T23:09:04.507Z,100.00
2023-04-08T23:11:30.955Z,100.00
2023-04-08T23:13:57.385Z,100.00
2023-04-08T23:16:23.817Z,100.00
2023-04-08T23:18:50.519Z,100.00
2023-04-08T23:21:17.170Z,100.00
2023-04-08T23:23:43.585Z,100.00
2023-04-08T23:26:21.263Z,100.00
2023-04-08T23:28:47.874Z,100.00
2023-04-08T23:31:14.280Z,100.00
2023-04-08T23:33:40.935Z,100.00
2023-04-08T23:36:09.657Z,100.00
2023-04-08T23:38:37.095Z,100.00
2023-04-08T23:41:04.599Z,100.00
2023-04-08T23:43:31.125Z,100.00
2023-04-08T23:45:57.710Z,100.00
2023-04-08T23:48:24.300Z,100.00
2023-04-08T23:50:55.009Z,100.00
2023-04-08T23:53:21.920Z,100.00
2023-04-08T23:55:48.608Z,100.00
2023-04-08T23:58:15.563Z,100.00
